sensor_id;sensor_type;location;lat;lon;timestamp;P1;durP1;ratioP1;P2;durP2;ratioP2
68872;SDS011;55907;50.806;12.882;2024-01-10T00:02:06;39.1;;;21.3;;
68872;SDS011;55907;50.806;12.882;2024-01-10T00:05:07;38.9;;;20.4;;
68872;SDS011;55907;50.806;12.882;2024-01-10T00:08:07;40.8;;;21.9;;
68872;SDS011;55907;50.806;12.882;2024-01-10T00:11:08;37.5;;;19.9;;
68872;SDS011;55907;50.806;12.882;2024-01-10T00:14:09;35.3;;;20.2;;
68872;SDS011;55907;50.806;12.882;2024-01-10T00:17:10;35.0;;;20.1;;
68872;SDS011;55907;50.806;12.882;2024-01-10T00:20:11;41.0;;;21.5;;
68872;SDS011;55907;50.806;12.882;2024-01-10T00:23:12;43.7;;;22.6;;
68872;SDS011;55907;50.806;12.882;2024-01-10T00:26:13;37.7;;;20.4;;
68872;SDS011;55907;50.806;12.882;2024-01-10T00:29:14;43.6;;;22.5;;
68872;SDS011;55907;50.806;12.882;2024-01-10T00:32:15;41.1;;;21.5;;
68872;SDS011;55907;50.806;12.882;2024-01-10T00:35:16;37.3;;;20.0;;
68872;SDS011;55907;50.806;12.882;2024-01-10T00:38:16;41.6;;;23.0;;
68872;SDS011;55907;50.806;12.882;2024-01-10T00:41:17;36.9;;;20.5;;
68872;SDS011;55907;50.806;12.882;2024-01-10T00:44:18;35.7;;;20.2;;
68872;SDS011;55907;50.806;12.882;2024-01-10T00:47:19;40.2;;;22.2;;
68872;SDS011;55907;50.806;12.882;2024-01-10T00:50:20;36.5;;;20.7;;
68872;SDS011;55907;50.806;12.882;2024-01-10T00:53:21;37.1;;;20.7;;
68872;SDS011;55907;50.806;12.882;2024-01-10T00:56:22;36.0;;;22.6;;
68872;SDS011;55907;50.806;12.882;2024-01-10T00:59:23;38.6;;;19.7;;
68872;SDS011;55907;50.806;12.882;2024-01-10T01:02:24;39.2;;;21.1;;
68872;SDS011;55907;50.806;12.882;2024-01-10T01:05:25;34.5;;;19.2;;
68872;SDS011;55907;50.806;12.882;2024-01-10T01:08:25;36.7;;;20.9;;
68872;SDS011;55907;50.806;12.882;2024-01-10T01:11:26;35.5;;;20.3;;
68872;SDS011;55907;50.806;12.882;2024-01-10T01:14:27;36.9;;;21.4;;
68872;SDS011;55907;50.806;12.882;2024-01-10T01:17:28;39.0;;;21.5;;
68872;SDS011;55907;50.806;12.882;2024-01-10T01:20:29;37.6;;;21.7;;
68872;SDS011;55907;50.806;12.882;2024-01-10T01:23:30;39.8;;;20.7;;
68872;SDS011;55907;50.806;12.882;2024-01-10T01:26:31;35.1;;;20.2;;
68872;SDS011;55907;50.806;12.882;2024-01-10T01:29:32;45.7;;;24.3;;
68872;SDS011;55907;50.806;12.882;2024-01-10T01:32:33;35.6;;;20.1;;
68872;SDS011;55907;50.806;12.882;2024-01-10T01:35:34;35.4;;;19.3;;
68872;SDS011;55907;50.806;12.882;2024-01-10T01:38:34;29.7;;;18.6;;
68872;SDS011;55907;50.806;12.882;2024-01-10T01:41:35;28.4;;;15.8;;
68872;SDS011;55907;50.806;12.882;2024-01-10T01:44:36;28.9;;;15.9;;
68872;SDS011;55907;50.806;12.882;2024-01-10T01:47:38;28.4;;;13.6;;
68872;SDS011;55907;50.806;12.882;2024-01-10T01:50:38;31.2;;;18.4;;
68872;SDS011;55907;50.806;12.882;2024-01-10T01:53:39;28.2;;;16.9;;
68872;SDS011;55907;50.806;12.882;2024-01-10T01:56:40;25.5;;;14.4;;
68872;SDS011;55907;50.806;12.882;2024-01-10T01:59:41;29.1;;;17.1;;
68872;SDS011;55907;50.806;12.882;2024-01-10T02:02:42;22.2;;;14.1;;
68872;SDS011;55907;50.806;12.882;2024-01-10T02:05:43;27.7;;;16.5;;
68872;SDS011;55907;50.806;12.882;2024-01-10T02:08:43;27.3;;;16.7;;
68872;SDS011;55907;50.806;12.882;2024-01-10T02:11:44;40.4;;;22.0;;
68872;SDS011;55907;50.806;12.882;2024-01-10T02:14:45;27.7;;;16.5;;
68872;SDS011;55907;50.806;12.882;2024-01-10T02:17:46;32.4;;;18.1;;
68872;SDS011;55907;50.806;12.882;2024-01-10T02:20:47;29.5;;;18.7;;
68872;SDS011;55907;50.806;12.882;2024-01-10T02:23:48;31.2;;;18.4;;
68872;SDS011;55907;50.806;12.882;2024-01-10T02:26:49;32.6;;;19.7;;
68872;SDS011;55907;50.806;12.882;2024-01-10T02:29:50;34.6;;;19.8;;
68872;SDS011;55907;50.806;12.882;2024-01-10T02:32:51;39.7;;;21.4;;
68872;SDS011;55907;50.806;12.882;2024-01-10T02:35:52;34.0;;;18.7;;
68872;SDS011;55907;50.806;12.882;2024-01-10T02:38:52;32.6;;;18.6;;
68872;SDS011;55907;50.806;12.882;2024-01-10T02:41:53;30.9;;;18.2;;
68872;SDS011;55907;50.806;12.882;2024-01-10T02:44:54;27.5;;;16.9;;
68872;SDS011;55907;50.806;12.882;2024-01-10T02:47:55;27.8;;;16.7;;
68872;SDS011;55907;50.806;12.882;2024-01-10T02:50:56;29.6;;;17.0;;
68872;SDS011;55907;50.806;12.882;2024-01-10T02:53:57;30.7;;;16.5;;
68872;SDS011;55907;50.806;12.882;2024-01-10T02:56:58;24.1;;;14.8;;
68872;SDS011;55907;50.806;12.882;2024-01-10T02:59:59;25.9;;;15.4;;
68872;SDS011;55907;50.806;12.882;2024-01-10T03:03:00;26.3;;;16.1;;
68872;SDS011;55907;50.806;12.882;2024-01-10T03:06:01;28.7;;;16.3;;
68872;SDS011;55907;50.806;12.882;2024-01-10T03:09:02;24.8;;;16.6;;
68872;SDS011;55907;50.806;12.882;2024-01-10T03:12:03;23.6;;;15.1;;
68872;SDS011;55907;50.806;12.882;2024-01-10T03:15:04;29.0;;;16.0;;
68872;SDS011;55907;50.806;12.882;2024-01-10T03:18:04;26.2;;;13.8;;
68872;SDS011;55907;50.806;12.882;2024-01-10T03:21:05;25.5;;;14.7;;
68872;SDS011;55907;50.806;12.882;2024-01-10T03:24:07;20.9;;;12.9;;
68872;SDS011;55907;50.806;12.882;2024-01-10T03:27:07;23.5;;;13.9;;
68872;SDS011;55907;50.806;12.882;2024-01-10T03:30:08;32.4;;;17.0;;
68872;SDS011;55907;50.806;12.882;2024-01-10T03:33:09;24.5;;;15.0;;
68872;SDS011;55907;50.806;12.882;2024-01-10T03:36:11;29.3;;;15.7;;
68872;SDS011;55907;50.806;12.882;2024-01-10T03:39:11;25.5;;;14.4;;
68872;SDS011;55907;50.806;12.882;2024-01-10T03:42:12;27.6;;;14.9;;
68872;SDS011;55907;50.806;12.882;2024-01-10T03:45:13;24.9;;;14.0;;
68872;SDS011;55907;50.806;12.882;2024-01-10T03:48:14;19.5;;;12.9;;
68872;SDS011;55907;50.806;12.882;2024-01-10T03:51:15;20.8;;;13.0;;
68872;SDS011;55907;50.806;12.882;2024-01-10T03:54:15;21.5;;;12.9;;
68872;SDS011;55907;50.806;12.882;2024-01-10T03:57:16;19.9;;;12.2;;
68872;SDS011;55907;50.806;12.882;2024-01-10T04:00:17;24.6;;;14.3;;
68872;SDS011;55907;50.806;12.882;2024-01-10T04:03:18;19.1;;;12.4;;
68872;SDS011;55907;50.806;12.882;2024-01-10T04:06:19;19.9;;;11.0;;
68872;SDS011;55907;50.806;12.882;2024-01-10T04:09:20;27.8;;;15.0;;
68872;SDS011;55907;50.806;12.882;2024-01-10T04:12:21;27.4;;;15.0;;
68872;SDS011;55907;50.806;12.882;2024-01-10T04:15:22;26.4;;;14.4;;
68872;SDS011;55907;50.806;12.882;2024-01-10T04:18:23;26.9;;;15.6;;
68872;SDS011;55907;50.806;12.882;2024-01-10T04:21:24;18.6;;;12.4;;
68872;SDS011;55907;50.806;12.882;2024-01-10T04:24:24;20.2;;;12.3;;
68872;SDS011;55907;50.806;12.882;2024-01-10T04:27:25;21.2;;;12.8;;
68872;SDS011;55907;50.806;12.882;2024-01-10T04:30:26;21.4;;;13.5;;
68872;SDS011;55907;50.806;12.882;2024-01-10T04:33:27;22.2;;;12.9;;
68872;SDS011;55907;50.806;12.882;2024-01-10T04:36:28;19.4;;;13.4;;
68872;SDS011;55907;50.806;12.882;2024-01-10T04:39:29;22.2;;;13.1;;
68872;SDS011;55907;50.806;12.882;2024-01-10T04:42:30;19.1;;;12.4;;
68872;SDS011;55907;50.806;12.882;2024-01-10T04:45:31;28.3;;;14.2;;
68872;SDS011;55907;50.806;12.882;2024-01-10T04:48:32;20.5;;;13.1;;
68872;SDS011;55907;50.806;12.882;2024-01-10T04:51:32;27.9;;;14.4;;
68872;SDS011;55907;50.806;12.882;2024-01-10T04:54:33;24.7;;;14.8;;
68872;SDS011;55907;50.806;12.882;2024-01-10T04:57:34;26.6;;;14.8;;
68872;SDS011;55907;50.806;12.882;2024-01-10T05:00:35;23.0;;;14.6;;
68872;SDS011;55907;50.806;12.882;2024-01-10T05:03:36;22.0;;;14.3;;
68872;SDS011;55907;50.806;12.882;2024-01-10T05:06:37;23.5;;;14.8;;
68872;SDS011;55907;50.806;12.882;2024-01-10T05:09:38;25.0;;;15.3;;
68872;SDS011;55907;50.806;12.882;2024-01-10T05:12:39;23.1;;;14.6;;
68872;SDS011;55907;50.806;12.882;2024-01-10T05:15:40;18.9;;;11.7;;
68872;SDS011;55907;50.806;12.882;2024-01-10T05:18:41;14.4;;;9.2;;
68872;SDS011;55907;50.806;12.882;2024-01-10T05:21:41;13.0;;;9.3;;
68872;SDS011;55907;50.806;12.882;2024-01-10T05:24:42;18.4;;;11.9;;
68872;SDS011;55907;50.806;12.882;2024-01-10T05:27:43;17.7;;;12.1;;
68872;SDS011;55907;50.806;12.882;2024-01-10T05:30:44;17.9;;;12.3;;
68872;SDS011;55907;50.806;12.882;2024-01-10T05:33:45;23.0;;;14.1;;
68872;SDS011;55907;50.806;12.882;2024-01-10T05:36:46;21.7;;;13.5;;
68872;SDS011;55907;50.806;12.882;2024-01-10T05:39:47;22.3;;;12.8;;
68872;SDS011;55907;50.806;12.882;2024-01-10T05:42:48;19.7;;;12.2;;
68872;SDS011;55907;50.806;12.882;2024-01-10T05:45:49;25.7;;;14.0;;
68872;SDS011;55907;50.806;12.882;2024-01-10T05:48:50;26.1;;;13.9;;
68872;SDS011;55907;50.806;12.882;2024-01-10T05:51:51;25.9;;;14.8;;
68872;SDS011;55907;50.806;12.882;2024-01-10T05:54:52;25.8;;;14.8;;
68872;SDS011;55907;50.806;12.882;2024-01-10T05:57:52;24.1;;;14.4;;
68872;SDS011;55907;50.806;12.882;2024-01-10T06:00:53;21.9;;;13.4;;
68872;SDS011;55907;50.806;12.882;2024-01-10T06:03:54;17.7;;;12.4;;
68872;SDS011;55907;50.806;12.882;2024-01-10T06:06:56;18.7;;;13.3;;
68872;SDS011;55907;50.806;12.882;2024-01-10T06:09:56;21.7;;;15.4;;
68872;SDS011;55907;50.806;12.882;2024-01-10T06:12:57;23.0;;;13.9;;
68872;SDS011;55907;50.806;12.882;2024-01-10T06:15:58;29.2;;;15.2;;
68872;SDS011;55907;50.806;12.882;2024-01-10T06:18:59;25.3;;;13.9;;
68872;SDS011;55907;50.806;12.882;2024-01-10T06:22:00;29.9;;;18.2;;
68872;SDS011;55907;50.806;12.882;2024-01-10T06:25:01;25.5;;;14.2;;
68872;SDS011;55907;50.806;12.882;2024-01-10T06:31:03;26.2;;;14.4;;
68872;SDS011;55907;50.806;12.882;2024-01-10T06:34:03;23.1;;;13.7;;
68872;SDS011;55907;50.806;12.882;2024-01-10T06:37:04;23.4;;;12.3;;
68872;SDS011;55907;50.806;12.882;2024-01-10T06:40:06;24.6;;;14.5;;
68872;SDS011;55907;50.806;12.882;2024-01-10T06:43:06;26.9;;;14.7;;
68872;SDS011;55907;50.806;12.882;2024-01-10T06:46:07;23.1;;;13.2;;
68872;SDS011;55907;50.806;12.882;2024-01-10T06:49:08;25.5;;;14.3;;
68872;SDS011;55907;50.806;12.882;2024-01-10T06:52:09;16.3;;;11.7;;
68872;SDS011;55907;50.806;12.882;2024-01-10T06:55:10;21.6;;;13.1;;
68872;SDS011;55907;50.806;12.882;2024-01-10T06:58:11;22.3;;;12.6;;
68872;SDS011;55907;50.806;12.882;2024-01-10T07:01:12;19.6;;;12.1;;
68872;SDS011;55907;50.806;12.882;2024-01-10T07:04:12;22.4;;;14.0;;
68872;SDS011;55907;50.806;12.882;2024-01-10T07:07:14;25.1;;;14.4;;
68872;SDS011;55907;50.806;12.882;2024-01-10T07:10:14;24.9;;;13.8;;
68872;SDS011;55907;50.806;12.882;2024-01-10T07:13:15;22.4;;;14.3;;
68872;SDS011;55907;50.806;12.882;2024-01-10T07:16:16;19.0;;;11.0;;
68872;SDS011;55907;50.806;12.882;2024-01-10T07:19:17;19.5;;;12.7;;
68872;SDS011;55907;50.806;12.882;2024-01-10T07:22:18;18.8;;;11.8;;
68872;SDS011;55907;50.806;12.882;2024-01-10T07:25:19;19.0;;;11.9;;
68872;SDS011;55907;50.806;12.882;2024-01-10T07:28:20;15.6;;;10.8;;
68872;SDS011;55907;50.806;12.882;2024-01-10T07:31:21;14.6;;;9.7;;
68872;SDS011;55907;50.806;12.882;2024-01-10T07:34:22;15.6;;;11.2;;
68872;SDS011;55907;50.806;12.882;2024-01-10T07:37:22;13.8;;;10.2;;
68872;SDS011;55907;50.806;12.882;2024-01-10T07:40:23;18.3;;;11.3;;
68872;SDS011;55907;50.806;12.882;2024-01-10T07:43:24;21.2;;;11.7;;
68872;SDS011;55907;50.806;12.882;2024-01-10T07:46:25;21.4;;;16.1;;
68872;SDS011;55907;50.806;12.882;2024-01-10T07:49:26;20.0;;;12.7;;
68872;SDS011;55907;50.806;12.882;2024-01-10T07:52:27;20.6;;;11.9;;
68872;SDS011;55907;50.806;12.882;2024-01-10T07:55:28;16.9;;;11.1;;
68872;SDS011;55907;50.806;12.882;2024-01-10T07:58:29;20.4;;;11.4;;
68872;SDS011;55907;50.806;12.882;2024-01-10T08:01:29;17.5;;;12.0;;
68872;SDS011;55907;50.806;12.882;2024-01-10T08:04:30;18.4;;;11.4;;
68872;SDS011;55907;50.806;12.882;2024-01-10T08:07:31;19.3;;;12.5;;
68872;SDS011;55907;50.806;12.882;2024-01-10T08:10:32;19.5;;;11.9;;
68872;SDS011;55907;50.806;12.882;2024-01-10T08:13:33;14.6;;;10.8;;
68872;SDS011;55907;50.806;12.882;2024-01-10T08:16:34;15.8;;;10.5;;
68872;SDS011;55907;50.806;12.882;2024-01-10T08:19:35;18.9;;;11.9;;
68872;SDS011;55907;50.806;12.882;2024-01-10T08:22:36;15.9;;;9.8;;
68872;SDS011;55907;50.806;12.882;2024-01-10T08:25:36;15.7;;;9.8;;
68872;SDS011;55907;50.806;12.882;2024-01-10T08:28:37;15.1;;;9.8;;
68872;SDS011;55907;50.806;12.882;2024-01-10T08:31:38;16.7;;;10.2;;
68872;SDS011;55907;50.806;12.882;2024-01-10T08:34:39;17.5;;;10.9;;
68872;SDS011;55907;50.806;12.882;2024-01-10T08:37:40;15.1;;;10.6;;
68872;SDS011;55907;50.806;12.882;2024-01-10T08:40:41;16.1;;;10.7;;
68872;SDS011;55907;50.806;12.882;2024-01-10T08:43:41;17.4;;;11.9;;
68872;SDS011;55907;50.806;12.882;2024-01-10T08:46:42;14.8;;;10.6;;
68872;SDS011;55907;50.806;12.882;2024-01-10T08:49:43;12.6;;;8.7;;
68872;SDS011;55907;50.806;12.882;2024-01-10T08:52:44;18.6;;;13.1;;
68872;SDS011;55907;50.806;12.882;2024-01-10T08:55:45;12.3;;;9.3;;
68872;SDS011;55907;50.806;12.882;2024-01-10T08:58:45;17.0;;;11.9;;
68872;SDS011;55907;50.806;12.882;2024-01-10T09:01:46;20.3;;;12.3;;
68872;SDS011;55907;50.806;12.882;2024-01-10T09:04:47;20.4;;;13.3;;
68872;SDS011;55907;50.806;12.882;2024-01-10T09:07:48;18.7;;;12.7;;
68872;SDS011;55907;50.806;12.882;2024-01-10T09:10:49;21.9;;;13.4;;
68872;SDS011;55907;50.806;12.882;2024-01-10T09:13:49;20.3;;;13.4;;
68872;SDS011;55907;50.806;12.882;2024-01-10T09:16:50;17.9;;;13.6;;
68872;SDS011;55907;50.806;12.882;2024-01-10T09:19:51;17.4;;;11.0;;
68872;SDS011;55907;50.806;12.882;2024-01-10T09:22:52;20.4;;;13.1;;
68872;SDS011;55907;50.806;12.882;2024-01-10T09:25:53;16.4;;;12.0;;
68872;SDS011;55907;50.806;12.882;2024-01-10T09:28:53;17.5;;;11.1;;
68872;SDS011;55907;50.806;12.882;2024-01-10T09:31:54;18.9;;;14.8;;
68872;SDS011;55907;50.806;12.882;2024-01-10T09:34:55;20.3;;;15.7;;
68872;SDS011;55907;50.806;12.882;2024-01-10T09:37:55;25.1;;;18.0;;
68872;SDS011;55907;50.806;12.882;2024-01-10T09:40:59;23.2;;;17.0;;
68872;SDS011;55907;50.806;12.882;2024-01-10T09:43:57;22.8;;;16.7;;
68872;SDS011;55907;50.806;12.882;2024-01-10T09:46:58;21.7;;;15.3;;
68872;SDS011;55907;50.806;12.882;2024-01-10T09:49:59;19.2;;;14.8;;
68872;SDS011;55907;50.806;12.882;2024-01-10T09:53:02;19.0;;;14.0;;
68872;SDS011;55907;50.806;12.882;2024-01-10T09:56:00;19.4;;;14.3;;
68872;SDS011;55907;50.806;12.882;2024-01-10T09:59:01;18.8;;;14.5;;
68872;SDS011;55907;50.806;12.882;2024-01-10T10:02:01;17.1;;;12.6;;
68872;SDS011;55907;50.806;12.882;2024-01-10T10:05:03;14.8;;;12.4;;
68872;SDS011;55907;50.806;12.882;2024-01-10T10:08:06;14.4;;;11.7;;
68872;SDS011;55907;50.806;12.882;2024-01-10T10:11:04;13.6;;;11.9;;
68872;SDS011;55907;50.806;12.882;2024-01-10T10:17:13;12.9;;;11.5;;
68872;SDS011;55907;50.806;12.882;2024-01-10T10:20:06;14.4;;;11.7;;
68872;SDS011;55907;50.806;12.882;2024-01-10T10:23:07;10.8;;;9.7;;
68872;SDS011;55907;50.806;12.882;2024-01-10T10:26:11;13.7;;;10.7;;
68872;SDS011;55907;50.806;12.882;2024-01-10T10:29:08;10.3;;;9.2;;
68872;SDS011;55907;50.806;12.882;2024-01-10T10:32:09;21.0;;;14.3;;
68872;SDS011;55907;50.806;12.882;2024-01-10T10:35:09;11.8;;;9.7;;
68872;SDS011;55907;50.806;12.882;2024-01-10T10:38:10;10.9;;;9.7;;
68872;SDS011;55907;50.806;12.882;2024-01-10T10:41:11;15.7;;;13.1;;
68872;SDS011;55907;50.806;12.882;2024-01-10T10:44:12;21.5;;;17.5;;
68872;SDS011;55907;50.806;12.882;2024-01-10T10:47:12;25.2;;;17.4;;
68872;SDS011;55907;50.806;12.882;2024-01-10T10:50:13;15.0;;;11.9;;
68872;SDS011;55907;50.806;12.882;2024-01-10T10:53:14;43.6;;;30.4;;
68872;SDS011;55907;50.806;12.882;2024-01-10T10:56:15;18.9;;;14.5;;
68872;SDS011;55907;50.806;12.882;2024-01-10T10:59:15;14.4;;;12.7;;
68872;SDS011;55907;50.806;12.882;2024-01-10T11:02:16;17.0;;;14.5;;
68872;SDS011;55907;50.806;12.882;2024-01-10T11:05:17;17.2;;;14.0;;
68872;SDS011;55907;50.806;12.882;2024-01-10T11:08:18;19.5;;;14.8;;
68872;SDS011;55907;50.806;12.882;2024-01-10T11:11:21;16.2;;;12.4;;
68872;SDS011;55907;50.806;12.882;2024-01-10T11:14:21;13.0;;;11.7;;
68872;SDS011;55907;50.806;12.882;2024-01-10T11:17:26;14.1;;;12.3;;
68872;SDS011;55907;50.806;12.882;2024-01-10T11:20:25;19.9;;;17.0;;
68872;SDS011;55907;50.806;12.882;2024-01-10T11:23:28;35.7;;;27.0;;
68872;SDS011;55907;50.806;12.882;2024-01-10T11:26:22;9.3;;;8.4;;
68872;SDS011;55907;50.806;12.882;2024-01-10T11:29:23;16.7;;;14.7;;
68872;SDS011;55907;50.806;12.882;2024-01-10T11:32:23;35.5;;;26.1;;
68872;SDS011;55907;50.806;12.882;2024-01-10T11:35:24;14.8;;;12.9;;
68872;SDS011;55907;50.806;12.882;2024-01-10T11:38:27;11.5;;;9.9;;
68872;SDS011;55907;50.806;12.882;2024-01-10T11:41:26;6.1;;;5.6;;
68872;SDS011;55907;50.806;12.882;2024-01-10T11:44:28;9.8;;;8.1;;
68872;SDS011;55907;50.806;12.882;2024-01-10T11:47:27;19.4;;;14.6;;
68872;SDS011;55907;50.806;12.882;2024-01-10T11:50:28;9.3;;;8.3;;
68872;SDS011;55907;50.806;12.882;2024-01-10T11:53:37;11.9;;;10.4;;
68872;SDS011;55907;50.806;12.882;2024-01-10T11:56:32;8.5;;;7.6;;
68872;SDS011;55907;50.806;12.882;2024-01-10T11:59:30;10.1;;;8.4;;
68872;SDS011;55907;50.806;12.882;2024-01-10T12:02:31;6.6;;;6.0;;
68872;SDS011;55907;50.806;12.882;2024-01-10T12:05:31;5.5;;;5.0;;
68872;SDS011;55907;50.806;12.882;2024-01-10T12:08:32;4.9;;;4.4;;
68872;SDS011;55907;50.806;12.882;2024-01-10T12:11:33;4.7;;;4.4;;
68872;SDS011;55907;50.806;12.882;2024-01-10T12:14:34;5.1;;;4.7;;
68872;SDS011;55907;50.806;12.882;2024-01-10T12:23:36;4.8;;;4.4;;
68872;SDS011;55907;50.806;12.882;2024-01-10T12:29:37;4.3;;;4.0;;
68872;SDS011;55907;50.806;12.882;2024-01-10T12:32:38;4.7;;;4.3;;
68872;SDS011;55907;50.806;12.882;2024-01-10T12:35:39;4.5;;;4.1;;
68872;SDS011;55907;50.806;12.882;2024-01-10T12:38:40;4.4;;;4.1;;
68872;SDS011;55907;50.806;12.882;2024-01-10T12:41:40;3.9;;;3.6;;
68872;SDS011;55907;50.806;12.882;2024-01-10T12:44:43;4.4;;;4.0;;
68872;SDS011;55907;50.806;12.882;2024-01-10T12:47:42;3.5;;;3.2;;
68872;SDS011;55907;50.806;12.882;2024-01-10T12:50:42;3.7;;;3.4;;
68872;SDS011;55907;50.806;12.882;2024-01-10T12:53:43;3.9;;;3.6;;
68872;SDS011;55907;50.806;12.882;2024-01-10T12:56:44;3.7;;;3.4;;
68872;SDS011;55907;50.806;12.882;2024-01-10T12:59:45;3.5;;;3.3;;
68872;SDS011;55907;50.806;12.882;2024-01-10T13:02:46;4.0;;;3.7;;
68872;SDS011;55907;50.806;12.882;2024-01-10T13:08:47;3.4;;;3.1;;
68872;SDS011;55907;50.806;12.882;2024-01-10T13:11:48;37.4;;;26.4;;
68872;SDS011;55907;50.806;12.882;2024-01-10T13:14:49;4.0;;;3.7;;
68872;SDS011;55907;50.806;12.882;2024-01-10T13:20:50;3.8;;;3.5;;
68872;SDS011;55907;50.806;12.882;2024-01-10T13:23:51;4.9;;;3.6;;
68872;SDS011;55907;50.806;12.882;2024-01-10T13:26:52;3.9;;;3.2;;
68872;SDS011;55907;50.806;12.882;2024-01-10T13:29:53;4.0;;;3.6;;
68872;SDS011;55907;50.806;12.882;2024-01-10T13:32:54;5.0;;;4.5;;
68872;SDS011;55907;50.806;12.882;2024-01-10T13:35:54;5.2;;;4.5;;
68872;SDS011;55907;50.806;12.882;2024-01-10T13:38:55;7.9;;;6.8;;
68872;SDS011;55907;50.806;12.882;2024-01-10T13:41:56;8.1;;;6.3;;
68872;SDS011;55907;50.806;12.882;2024-01-10T13:44:57;9.1;;;5.9;;
68872;SDS011;55907;50.806;12.882;2024-01-10T13:47:58;7.6;;;6.2;;
68872;SDS011;55907;50.806;12.882;2024-01-10T13:53:59;9.9;;;7.1;;
68872;SDS011;55907;50.806;12.882;2024-01-10T13:57:00;10.6;;;7.7;;
68872;SDS011;55907;50.806;12.882;2024-01-10T14:00:01;9.2;;;6.5;;
68872;SDS011;55907;50.806;12.882;2024-01-10T14:03:02;12.9;;;8.6;;
68872;SDS011;55907;50.806;12.882;2024-01-10T14:06:03;9.1;;;6.7;;
68872;SDS011;55907;50.806;12.882;2024-01-10T14:09:03;10.9;;;7.4;;
68872;SDS011;55907;50.806;12.882;2024-01-10T14:12:04;13.0;;;8.8;;
68872;SDS011;55907;50.806;12.882;2024-01-10T14:15:05;11.4;;;8.6;;
68872;SDS011;55907;50.806;12.882;2024-01-10T14:18:06;14.9;;;9.5;;
68872;SDS011;55907;50.806;12.882;2024-01-10T14:21:07;12.2;;;8.6;;
68872;SDS011;55907;50.806;12.882;2024-01-10T14:24:07;21.3;;;12.6;;
68872;SDS011;55907;50.806;12.882;2024-01-10T14:27:08;12.4;;;9.3;;
68872;SDS011;55907;50.806;12.882;2024-01-10T14:30:09;13.1;;;9.0;;
68872;SDS011;55907;50.806;12.882;2024-01-10T14:33:10;14.5;;;8.7;;
68872;SDS011;55907;50.806;12.882;2024-01-10T14:36:11;13.4;;;8.8;;
68872;SDS011;55907;50.806;12.882;2024-01-10T14:39:11;10.7;;;7.5;;
68872;SDS011;55907;50.806;12.882;2024-01-10T14:42:12;8.8;;;6.8;;
68872;SDS011;55907;50.806;12.882;2024-01-10T14:45:13;8.7;;;7.1;;
68872;SDS011;55907;50.806;12.882;2024-01-10T14:48:14;8.8;;;6.2;;
68872;SDS011;55907;50.806;12.882;2024-01-10T14:51:15;4.9;;;4.5;;
68872;SDS011;55907;50.806;12.882;2024-01-10T14:54:16;6.8;;;5.2;;
68872;SDS011;55907;50.806;12.882;2024-01-10T14:57:16;5.7;;;4.7;;
68872;SDS011;55907;50.806;12.882;2024-01-10T15:00:17;5.0;;;4.5;;
68872;SDS011;55907;50.806;12.882;2024-01-10T15:03:18;5.9;;;4.9;;
68872;SDS011;55907;50.806;12.882;2024-01-10T15:06:19;6.5;;;5.8;;
68872;SDS011;55907;50.806;12.882;2024-01-10T15:09:20;8.3;;;5.2;;
68872;SDS011;55907;50.806;12.882;2024-01-10T15:12:20;7.3;;;5.5;;
68872;SDS011;55907;50.806;12.882;2024-01-10T15:15:22;6.6;;;5.3;;
68872;SDS011;55907;50.806;12.882;2024-01-10T15:18:22;6.5;;;5.1;;
68872;SDS011;55907;50.806;12.882;2024-01-10T15:21:23;6.8;;;5.2;;
68872;SDS011;55907;50.806;12.882;2024-01-10T15:24:24;6.5;;;4.6;;
68872;SDS011;55907;50.806;12.882;2024-01-10T15:27:25;5.4;;;4.6;;
68872;SDS011;55907;50.806;12.882;2024-01-10T15:30:25;16.2;;;8.7;;
68872;SDS011;55907;50.806;12.882;2024-01-10T15:33:26;7.8;;;6.0;;
68872;SDS011;55907;50.806;12.882;2024-01-10T15:36:27;8.2;;;5.5;;
68872;SDS011;55907;50.806;12.882;2024-01-10T15:39:28;8.1;;;5.8;;
68872;SDS011;55907;50.806;12.882;2024-01-10T15:42:29;7.5;;;5.6;;
68872;SDS011;55907;50.806;12.882;2024-01-10T15:45:29;9.2;;;6.3;;
68872;SDS011;55907;50.806;12.882;2024-01-10T15:48:30;6.7;;;6.0;;
68872;SDS011;55907;50.806;12.882;2024-01-10T15:51:31;7.1;;;6.0;;
68872;SDS011;55907;50.806;12.882;2024-01-10T15:54:32;8.1;;;6.3;;
68872;SDS011;55907;50.806;12.882;2024-01-10T15:57:33;9.3;;;6.0;;
68872;SDS011;55907;50.806;12.882;2024-01-10T16:00:34;9.7;;;6.8;;
68872;SDS011;55907;50.806;12.882;2024-01-10T16:03:34;7.6;;;5.8;;
68872;SDS011;55907;50.806;12.882;2024-01-10T16:06:35;8.7;;;6.6;;
68872;SDS011;55907;50.806;12.882;2024-01-10T16:09:36;9.8;;;6.9;;
68872;SDS011;55907;50.806;12.882;2024-01-10T16:12:37;7.6;;;5.5;;
68872;SDS011;55907;50.806;12.882;2024-01-10T16:15:38;8.2;;;6.9;;
68872;SDS011;55907;50.806;12.882;2024-01-10T16:18:38;10.3;;;6.7;;
68872;SDS011;55907;50.806;12.882;2024-01-10T16:21:39;9.6;;;5.9;;
68872;SDS011;55907;50.806;12.882;2024-01-10T16:24:40;8.8;;;6.2;;
68872;SDS011;55907;50.806;12.882;2024-01-10T16:27:41;9.0;;;6.5;;
68872;SDS011;55907;50.806;12.882;2024-01-10T16:30:42;11.8;;;7.0;;
68872;SDS011;55907;50.806;12.882;2024-01-10T16:33:43;9.3;;;8.3;;
68872;SDS011;55907;50.806;12.882;2024-01-10T16:36:43;11.1;;;7.3;;
68872;SDS011;55907;50.806;12.882;2024-01-10T16:39:44;9.3;;;6.7;;
68872;SDS011;55907;50.806;12.882;2024-01-10T16:42:45;8.3;;;6.9;;
68872;SDS011;55907;50.806;12.882;2024-01-10T16:45:46;27.5;;;14.4;;
68872;SDS011;55907;50.806;12.882;2024-01-10T16:48:47;9.5;;;7.0;;
68872;SDS011;55907;50.806;12.882;2024-01-10T16:51:48;8.7;;;6.5;;
68872;SDS011;55907;50.806;12.882;2024-01-10T16:54:49;8.9;;;6.4;;
68872;SDS011;55907;50.806;12.882;2024-01-10T16:57:49;8.1;;;6.8;;
68872;SDS011;55907;50.806;12.882;2024-01-10T17:00:50;8.7;;;6.2;;
68872;SDS011;55907;50.806;12.882;2024-01-10T17:03:51;8.2;;;6.8;;
68872;SDS011;55907;50.806;12.882;2024-01-10T17:06:52;11.3;;;7.3;;
68872;SDS011;55907;50.806;12.882;2024-01-10T17:09:53;11.9;;;7.3;;
68872;SDS011;55907;50.806;12.882;2024-01-10T17:12:53;10.2;;;6.3;;
68872;SDS011;55907;50.806;12.882;2024-01-10T17:15:56;9.8;;;7.6;;
68872;SDS011;55907;50.806;12.882;2024-01-10T17:18:55;9.4;;;6.7;;
68872;SDS011;55907;50.806;12.882;2024-01-10T17:21:56;11.9;;;7.3;;
68872;SDS011;55907;50.806;12.882;2024-01-10T17:24:57;6.7;;;6.0;;
68872;SDS011;55907;50.806;12.882;2024-01-10T17:27:58;7.2;;;6.2;;
68872;SDS011;55907;50.806;12.882;2024-01-10T17:30:59;9.6;;;7.0;;
68872;SDS011;55907;50.806;12.882;2024-01-10T17:33:59;8.0;;;6.7;;
68872;SDS011;55907;50.806;12.882;2024-01-10T17:37:00;11.3;;;7.8;;
68872;SDS011;55907;50.806;12.882;2024-01-10T17:40:01;10.8;;;7.6;;
68872;SDS011;55907;50.806;12.882;2024-01-10T17:43:02;9.9;;;7.4;;
68872;SDS011;55907;50.806;12.882;2024-01-10T17:46:03;12.6;;;7.8;;
68872;SDS011;55907;50.806;12.882;2024-01-10T17:49:04;13.2;;;8.2;;
68872;SDS011;55907;50.806;12.882;2024-01-10T17:52:05;11.8;;;8.3;;
68872;SDS011;55907;50.806;12.882;2024-01-10T17:55:05;11.6;;;8.1;;
68872;SDS011;55907;50.806;12.882;2024-01-10T17:58:06;12.1;;;8.4;;
68872;SDS011;55907;50.806;12.882;2024-01-10T18:01:07;11.3;;;7.6;;
68872;SDS011;55907;50.806;12.882;2024-01-10T18:04:08;12.9;;;9.1;;
68872;SDS011;55907;50.806;12.882;2024-01-10T18:07:09;9.4;;;7.6;;
68872;SDS011;55907;50.806;12.882;2024-01-10T18:10:11;11.0;;;7.4;;
68872;SDS011;55907;50.806;12.882;2024-01-10T18:13:10;10.7;;;7.6;;
68872;SDS011;55907;50.806;12.882;2024-01-10T18:16:11;11.3;;;8.2;;
68872;SDS011;55907;50.806;12.882;2024-01-10T18:19:12;8.8;;;7.9;;
68872;SDS011;55907;50.806;12.882;2024-01-10T18:22:13;12.3;;;8.5;;
68872;SDS011;55907;50.806;12.882;2024-01-10T18:25:14;13.9;;;8.7;;
68872;SDS011;55907;50.806;12.882;2024-01-10T18:28:15;11.3;;;7.6;;